Terminal Aerodrome Forecast
Issued by NWS

Home | Current Version | Previous Version | Text Only | Print | Product List | Glossary On
Versions: 1 2 3 4 5 6 7 8 9 10 11 12 13 14 15
000
FTUS45 KFGZ 282323
TAFPGA
TAF
KPGA 282323Z 2900/2924 31014G20KT P6SM BKN100
     FM290300 32008KT P6SM FEW090
     FM291700 35015G24KT P6SM SCT100=

USA.gov is the U.S. government's official web portal to all federal, state and local government web resources and services.